sensor_id;sensor_type;location;lat;lon;timestamp;P1;durP1;ratioP1;P2;durP2;ratioP2
29044;SDS011;16133;49.486;12.176;2023-02-01T00:00:09;10.48;;;5.10;;
29044;SDS011;16133;49.486;12.176;2023-02-01T00:02:35;11.02;;;5.13;;
29044;SDS011;16133;49.486;12.176;2023-02-01T00:05:04;12.02;;;5.22;;
29044;SDS011;16133;49.486;12.176;2023-02-01T00:07:30;11.48;;;5.22;;
29044;SDS011;16133;49.486;12.176;2023-02-01T00:09:56;10.77;;;5.22;;
29044;SDS011;16133;49.486;12.176;2023-02-01T00:12:21;15.15;;;6.05;;
29044;SDS011;16133;49.486;12.176;2023-02-01T00:14:46;11.63;;;5.25;;
29044;SDS011;16133;49.486;12.176;2023-02-01T00:17:13;11.93;;;5.47;;
29044;SDS011;16133;49.486;12.176;2023-02-01T00:19:38;11.77;;;5.45;;
29044;SDS011;16133;49.486;12.176;2023-02-01T00:22:04;12.18;;;5.38;;
29044;SDS011;16133;49.486;12.176;2023-02-01T00:24:29;12.30;;;5.45;;
29044;SDS011;16133;49.486;12.176;2023-02-01T00:26:54;11.13;;;5.15;;
29044;SDS011;16133;49.486;12.176;2023-02-01T00:29:20;11.20;;;5.65;;
29044;SDS011;16133;49.486;12.176;2023-02-01T00:31:46;8.27;;;4.85;;
29044;SDS011;16133;49.486;12.176;2023-02-01T00:34:15;10.93;;;5.95;;
29044;SDS011;16133;49.486;12.176;2023-02-01T00:36:41;10.02;;;5.50;;
29044;SDS011;16133;49.486;12.176;2023-02-01T00:39:08;14.23;;;6.88;;
29044;SDS011;16133;49.486;12.176;2023-02-01T00:41:33;15.43;;;5.72;;
29044;SDS011;16133;49.486;12.176;2023-02-01T00:43:59;13.18;;;5.70;;
29044;SDS011;16133;49.486;12.176;2023-02-01T00:46:24;12.80;;;5.75;;
29044;SDS011;16133;49.486;12.176;2023-02-01T00:48:50;13.65;;;6.00;;
29044;SDS011;16133;49.486;12.176;2023-02-01T00:51:17;10.15;;;5.28;;
29044;SDS011;16133;49.486;12.176;2023-02-01T00:53:44;12.45;;;6.38;;
29044;SDS011;16133;49.486;12.176;2023-02-01T00:56:10;13.02;;;5.90;;
29044;SDS011;16133;49.486;12.176;2023-02-01T00:58:36;11.55;;;5.80;;
29044;SDS011;16133;49.486;12.176;2023-02-01T01:03:36;13.05;;;6.05;;
29044;SDS011;16133;49.486;12.176;2023-02-01T01:06:07;16.45;;;7.18;;
29044;SDS011;16133;49.486;12.176;2023-02-01T01:08:34;17.27;;;7.22;;
29044;SDS011;16133;49.486;12.176;2023-02-01T01:11:03;10.57;;;6.13;;
29044;SDS011;16133;49.486;12.176;2023-02-01T01:13:30;12.75;;;6.15;;
29044;SDS011;16133;49.486;12.176;2023-02-01T01:15:55;13.18;;;6.18;;
29044;SDS011;16133;49.486;12.176;2023-02-01T01:18:20;12.95;;;6.15;;
29044;SDS011;16133;49.486;12.176;2023-02-01T01:20:47;13.48;;;6.88;;
29044;SDS011;16133;49.486;12.176;2023-02-01T01:23:12;11.00;;;5.93;;
29044;SDS011;16133;49.486;12.176;2023-02-01T01:25:38;14.02;;;6.82;;
29044;SDS011;16133;49.486;12.176;2023-02-01T01:28:05;10.80;;;5.25;;
29044;SDS011;16133;49.486;12.176;2023-02-01T01:30:30;12.15;;;4.85;;
29044;SDS011;16133;49.486;12.176;2023-02-01T01:32:56;9.60;;;5.00;;
29044;SDS011;16133;49.486;12.176;2023-02-01T01:35:21;9.40;;;4.57;;
29044;SDS011;16133;49.486;12.176;2023-02-01T01:37:47;7.45;;;3.63;;
29044;SDS011;16133;49.486;12.176;2023-02-01T01:40:12;7.60;;;3.25;;
29044;SDS011;16133;49.486;12.176;2023-02-01T01:42:38;6.50;;;2.95;;
29044;SDS011;16133;49.486;12.176;2023-02-01T01:47:39;5.63;;;3.13;;
29044;SDS011;16133;49.486;12.176;2023-02-01T01:50:10;4.45;;;2.80;;
29044;SDS011;16133;49.486;12.176;2023-02-01T01:52:39;5.07;;;2.75;;
29044;SDS011;16133;49.486;12.176;2023-02-01T01:55:06;5.53;;;2.90;;
29044;SDS011;16133;49.486;12.176;2023-02-01T01:57:35;5.07;;;2.83;;
29044;SDS011;16133;49.486;12.176;2023-02-01T02:00:12;5.90;;;2.72;;
29044;SDS011;16133;49.486;12.176;2023-02-01T02:02:40;5.18;;;3.15;;
29044;SDS011;16133;49.486;12.176;2023-02-01T02:05:08;8.50;;;3.92;;
29044;SDS011;16133;49.486;12.176;2023-02-01T02:07:35;8.43;;;4.00;;
29044;SDS011;16133;49.486;12.176;2023-02-01T02:10:04;7.32;;;3.95;;
29044;SDS011;16133;49.486;12.176;2023-02-01T02:12:32;12.02;;;4.82;;
29044;SDS011;16133;49.486;12.176;2023-02-01T02:14:57;7.68;;;4.07;;
29044;SDS011;16133;49.486;12.176;2023-02-01T02:20:04;8.13;;;4.10;;
29044;SDS011;16133;49.486;12.176;2023-02-01T02:50:37;15.05;;;7.38;;
29044;SDS011;16133;49.486;12.176;2023-02-01T02:53:28;14.20;;;6.57;;
29044;SDS011;16133;49.486;12.176;2023-02-01T02:56:17;13.07;;;6.72;;
29044;SDS011;16133;49.486;12.176;2023-02-01T02:59:04;13.00;;;6.50;;
29044;SDS011;16133;49.486;12.176;2023-02-01T03:01:51;17.05;;;6.82;;
29044;SDS011;16133;49.486;12.176;2023-02-01T03:04:35;12.40;;;5.88;;
29044;SDS011;16133;49.486;12.176;2023-02-01T03:07:14;10.10;;;5.70;;
29044;SDS011;16133;49.486;12.176;2023-02-01T03:10:02;12.88;;;6.38;;
29044;SDS011;16133;49.486;12.176;2023-02-01T03:12:32;12.15;;;6.88;;
29044;SDS011;16133;49.486;12.176;2023-02-01T03:15:21;16.02;;;6.97;;
29044;SDS011;16133;49.486;12.176;2023-02-01T03:17:53;12.70;;;6.63;;
29044;SDS011;16133;49.486;12.176;2023-02-01T03:20:20;16.38;;;6.60;;
29044;SDS011;16133;49.486;12.176;2023-02-01T03:22:48;11.30;;;6.32;;
29044;SDS011;16133;49.486;12.176;2023-02-01T03:25:23;14.65;;;6.20;;
29044;SDS011;16133;49.486;12.176;2023-02-01T03:27:57;16.20;;;6.50;;
29044;SDS011;16133;49.486;12.176;2023-02-01T03:30:43;13.75;;;7.13;;
29044;SDS011;16133;49.486;12.176;2023-02-01T03:33:14;14.38;;;6.35;;
29044;SDS011;16133;49.486;12.176;2023-02-01T03:40:48;16.23;;;5.93;;
29044;SDS011;16133;49.486;12.176;2023-02-01T03:43:18;16.25;;;6.90;;
29044;SDS011;16133;49.486;12.176;2023-02-01T03:45:48;11.77;;;5.97;;
29044;SDS011;16133;49.486;12.176;2023-02-01T03:48:17;16.40;;;6.43;;
29044;SDS011;16133;49.486;12.176;2023-02-01T03:50:44;14.00;;;6.03;;
29044;SDS011;16133;49.486;12.176;2023-02-01T03:53:14;14.43;;;6.35;;
29044;SDS011;16133;49.486;12.176;2023-02-01T03:55:43;13.15;;;6.68;;
29044;SDS011;16133;49.486;12.176;2023-02-01T04:03:20;10.32;;;5.53;;
29044;SDS011;16133;49.486;12.176;2023-02-01T04:05:47;12.82;;;6.45;;
29044;SDS011;16133;49.486;12.176;2023-02-01T04:08:13;13.43;;;6.55;;
29044;SDS011;16133;49.486;12.176;2023-02-01T04:10:39;18.15;;;9.02;;
29044;SDS011;16133;49.486;12.176;2023-02-01T04:13:04;12.40;;;6.93;;
29044;SDS011;16133;49.486;12.176;2023-02-01T04:15:29;11.27;;;6.35;;
29044;SDS011;16133;49.486;12.176;2023-02-01T04:17:55;14.38;;;6.00;;
29044;SDS011;16133;49.486;12.176;2023-02-01T04:20:20;15.10;;;6.38;;
29044;SDS011;16133;49.486;12.176;2023-02-01T04:22:45;17.02;;;6.43;;
29044;SDS011;16133;49.486;12.176;2023-02-01T04:25:11;11.50;;;6.35;;
29044;SDS011;16133;49.486;12.176;2023-02-01T04:27:36;12.80;;;5.93;;
29044;SDS011;16133;49.486;12.176;2023-02-01T04:30:02;11.93;;;5.75;;
29044;SDS011;16133;49.486;12.176;2023-02-01T04:32:28;14.27;;;6.32;;
29044;SDS011;16133;49.486;12.176;2023-02-01T04:34:53;10.85;;;5.53;;
29044;SDS011;16133;49.486;12.176;2023-02-01T04:37:19;9.52;;;4.88;;
29044;SDS011;16133;49.486;12.176;2023-02-01T04:39:44;12.70;;;6.13;;
29044;SDS011;16133;49.486;12.176;2023-02-01T04:42:09;17.33;;;7.40;;
29044;SDS011;16133;49.486;12.176;2023-02-01T04:44:35;17.50;;;6.65;;
29044;SDS011;16133;49.486;12.176;2023-02-01T04:47:01;12.93;;;5.95;;
29044;SDS011;16133;49.486;12.176;2023-02-01T04:49:27;12.27;;;6.32;;
29044;SDS011;16133;49.486;12.176;2023-02-01T04:51:52;11.65;;;7.65;;
29044;SDS011;16133;49.486;12.176;2023-02-01T04:54:17;10.98;;;6.72;;
29044;SDS011;16133;49.486;12.176;2023-02-01T04:56:43;11.60;;;6.43;;
29044;SDS011;16133;49.486;12.176;2023-02-01T04:59:10;11.52;;;6.03;;
29044;SDS011;16133;49.486;12.176;2023-02-01T05:01:36;10.20;;;5.15;;
29044;SDS011;16133;49.486;12.176;2023-02-01T05:04:01;9.10;;;5.30;;
29044;SDS011;16133;49.486;12.176;2023-02-01T05:06:26;11.05;;;6.10;;
29044;SDS011;16133;49.486;12.176;2023-02-01T05:08:52;9.25;;;5.28;;
29044;SDS011;16133;49.486;12.176;2023-02-01T05:11:17;9.02;;;5.65;;
29044;SDS011;16133;49.486;12.176;2023-02-01T05:14:01;13.50;;;6.10;;
29044;SDS011;16133;49.486;12.176;2023-02-01T05:16:26;13.15;;;6.15;;
29044;SDS011;16133;49.486;12.176;2023-02-01T05:18:52;14.43;;;6.03;;
29044;SDS011;16133;49.486;12.176;2023-02-01T05:21:17;8.18;;;5.50;;
29044;SDS011;16133;49.486;12.176;2023-02-01T05:23:43;10.00;;;5.35;;
29044;SDS011;16133;49.486;12.176;2023-02-01T05:26:27;9.43;;;5.15;;
29044;SDS011;16133;49.486;12.176;2023-02-01T05:28:52;13.45;;;6.07;;
29044;SDS011;16133;49.486;12.176;2023-02-01T05:31:17;12.43;;;6.32;;
29044;SDS011;16133;49.486;12.176;2023-02-01T05:33:43;10.65;;;5.43;;
29044;SDS011;16133;49.486;12.176;2023-02-01T05:36:08;12.77;;;5.65;;
29044;SDS011;16133;49.486;12.176;2023-02-01T05:38:33;10.15;;;5.22;;
29044;SDS011;16133;49.486;12.176;2023-02-01T05:40:59;11.77;;;5.53;;
29044;SDS011;16133;49.486;12.176;2023-02-01T05:43:24;11.95;;;6.18;;
29044;SDS011;16133;49.486;12.176;2023-02-01T05:45:51;13.55;;;5.88;;
29044;SDS011;16133;49.486;12.176;2023-02-01T05:48:16;10.50;;;5.57;;
29044;SDS011;16133;49.486;12.176;2023-02-01T05:50:42;9.98;;;5.30;;
29044;SDS011;16133;49.486;12.176;2023-02-01T05:53:08;12.27;;;6.15;;
29044;SDS011;16133;49.486;12.176;2023-02-01T05:55:34;13.52;;;6.95;;
29044;SDS011;16133;49.486;12.176;2023-02-01T05:57:59;10.18;;;5.63;;
29044;SDS011;16133;49.486;12.176;2023-02-01T06:00:24;12.63;;;6.13;;
29044;SDS011;16133;49.486;12.176;2023-02-01T06:02:50;13.18;;;6.35;;
29044;SDS011;16133;49.486;12.176;2023-02-01T06:05:15;13.25;;;7.13;;
29044;SDS011;16133;49.486;12.176;2023-02-01T06:07:41;14.05;;;6.60;;
29044;SDS011;16133;49.486;12.176;2023-02-01T06:10:07;11.23;;;6.40;;
29044;SDS011;16133;49.486;12.176;2023-02-01T06:12:33;11.23;;;6.15;;
29044;SDS011;16133;49.486;12.176;2023-02-01T06:14:58;11.70;;;5.72;;
29044;SDS011;16133;49.486;12.176;2023-02-01T06:17:24;13.07;;;6.15;;
29044;SDS011;16133;49.486;12.176;2023-02-01T06:19:49;10.32;;;6.00;;
29044;SDS011;16133;49.486;12.176;2023-02-01T06:22:15;11.38;;;5.82;;
29044;SDS011;16133;49.486;12.176;2023-02-01T06:24:40;9.57;;;4.80;;
29044;SDS011;16133;49.486;12.176;2023-02-01T06:27:06;16.23;;;7.20;;
29044;SDS011;16133;49.486;12.176;2023-02-01T06:29:31;11.98;;;6.05;;
29044;SDS011;16133;49.486;12.176;2023-02-01T06:31:57;18.60;;;7.50;;
29044;SDS011;16133;49.486;12.176;2023-02-01T06:34:22;13.25;;;6.25;;
29044;SDS011;16133;49.486;12.176;2023-02-01T06:36:48;14.43;;;7.93;;
29044;SDS011;16133;49.486;12.176;2023-02-01T06:39:14;29.80;;;15.07;;
29044;SDS011;16133;49.486;12.176;2023-02-01T06:41:41;66.00;;;34.38;;
29044;SDS011;16133;49.486;12.176;2023-02-01T06:44:07;17.75;;;10.43;;
29044;SDS011;16133;49.486;12.176;2023-02-01T06:46:33;16.98;;;8.63;;
29044;SDS011;16133;49.486;12.176;2023-02-01T06:48:58;11.77;;;7.57;;
29044;SDS011;16133;49.486;12.176;2023-02-01T06:51:24;11.25;;;6.88;;
29044;SDS011;16133;49.486;12.176;2023-02-01T06:53:51;8.05;;;4.85;;
29044;SDS011;16133;49.486;12.176;2023-02-01T06:56:17;8.65;;;5.00;;
29044;SDS011;16133;49.486;12.176;2023-02-01T06:58:44;14.82;;;6.85;;
29044;SDS011;16133;49.486;12.176;2023-02-01T07:01:09;9.82;;;6.70;;
29044;SDS011;16133;49.486;12.176;2023-02-01T07:03:36;13.18;;;6.63;;
29044;SDS011;16133;49.486;12.176;2023-02-01T07:06:02;13.73;;;7.20;;
29044;SDS011;16133;49.486;12.176;2023-02-01T07:08:29;13.68;;;6.45;;
29044;SDS011;16133;49.486;12.176;2023-02-01T07:10:56;17.65;;;7.03;;
29044;SDS011;16133;49.486;12.176;2023-02-01T07:13:25;13.60;;;6.55;;
29044;SDS011;16133;49.486;12.176;2023-02-01T07:15:51;11.90;;;5.60;;
29044;SDS011;16133;49.486;12.176;2023-02-01T07:18:16;15.70;;;6.72;;
29044;SDS011;16133;49.486;12.176;2023-02-01T07:20:42;13.50;;;5.63;;
29044;SDS011;16133;49.486;12.176;2023-02-01T07:23:09;11.18;;;5.45;;
29044;SDS011;16133;49.486;12.176;2023-02-01T07:25:35;15.75;;;6.13;;
29044;SDS011;16133;49.486;12.176;2023-02-01T07:28:00;15.48;;;5.70;;
29044;SDS011;16133;49.486;12.176;2023-02-01T07:30:26;12.02;;;5.70;;
29044;SDS011;16133;49.486;12.176;2023-02-01T07:32:51;17.55;;;6.63;;
29044;SDS011;16133;49.486;12.176;2023-02-01T07:35:16;20.27;;;6.45;;
29044;SDS011;16133;49.486;12.176;2023-02-01T07:37:42;13.80;;;5.95;;
29044;SDS011;16133;49.486;12.176;2023-02-01T07:40:07;22.38;;;6.22;;
29044;SDS011;16133;49.486;12.176;2023-02-01T07:42:34;18.90;;;5.10;;
29044;SDS011;16133;49.486;12.176;2023-02-01T07:44:59;20.08;;;4.80;;
29044;SDS011;16133;49.486;12.176;2023-02-01T07:47:24;18.63;;;4.40;;
29044;SDS011;16133;49.486;12.176;2023-02-01T07:49:50;11.45;;;3.78;;
29044;SDS011;16133;49.486;12.176;2023-02-01T07:52:15;10.00;;;3.35;;
29044;SDS011;16133;49.486;12.176;2023-02-01T07:54:40;12.00;;;4.07;;
29044;SDS011;16133;49.486;12.176;2023-02-01T07:57:06;15.30;;;3.83;;
29044;SDS011;16133;49.486;12.176;2023-02-01T07:59:33;5.00;;;2.55;;
29044;SDS011;16133;49.486;12.176;2023-02-01T08:01:59;7.95;;;2.40;;
29044;SDS011;16133;49.486;12.176;2023-02-01T08:04:24;8.95;;;2.63;;
29044;SDS011;16133;49.486;12.176;2023-02-01T08:06:49;8.00;;;2.40;;
29044;SDS011;16133;49.486;12.176;2023-02-01T08:09:15;8.85;;;2.40;;
29044;SDS011;16133;49.486;12.176;2023-02-01T08:11:40;5.88;;;2.20;;
29044;SDS011;16133;49.486;12.176;2023-02-01T08:14:05;15.23;;;5.38;;
29044;SDS011;16133;49.486;12.176;2023-02-01T08:16:31;7.70;;;4.50;;
29044;SDS011;16133;49.486;12.176;2023-02-01T08:18:59;9.95;;;3.58;;
29044;SDS011;16133;49.486;12.176;2023-02-01T08:21:25;5.13;;;2.42;;
29044;SDS011;16133;49.486;12.176;2023-02-01T08:24:01;4.00;;;2.42;;
29044;SDS011;16133;49.486;12.176;2023-02-01T08:26:26;11.00;;;5.20;;
29044;SDS011;16133;49.486;12.176;2023-02-01T08:28:53;7.88;;;3.28;;
29044;SDS011;16133;49.486;12.176;2023-02-01T08:31:21;11.52;;;2.85;;
29044;SDS011;16133;49.486;12.176;2023-02-01T08:33:49;4.72;;;2.40;;
29044;SDS011;16133;49.486;12.176;2023-02-01T08:36:16;7.68;;;2.30;;
29044;SDS011;16133;49.486;12.176;2023-02-01T08:38:41;10.30;;;2.95;;
29044;SDS011;16133;49.486;12.176;2023-02-01T08:41:07;5.25;;;2.13;;
29044;SDS011;16133;49.486;12.176;2023-02-01T08:43:38;7.20;;;2.42;;
29044;SDS011;16133;49.486;12.176;2023-02-01T08:46:04;4.65;;;2.17;;
29044;SDS011;16133;49.486;12.176;2023-02-01T08:48:30;8.52;;;2.75;;
29044;SDS011;16133;49.486;12.176;2023-02-01T08:50:55;7.30;;;3.63;;
29044;SDS011;16133;49.486;12.176;2023-02-01T08:53:21;9.05;;;3.47;;
29044;SDS011;16133;49.486;12.176;2023-02-01T08:55:46;11.43;;;2.97;;
29044;SDS011;16133;49.486;12.176;2023-02-01T08:58:12;8.55;;;2.80;;
29044;SDS011;16133;49.486;12.176;2023-02-01T09:00:39;10.68;;;3.00;;
29044;SDS011;16133;49.486;12.176;2023-02-01T09:03:05;9.13;;;2.80;;
29044;SDS011;16133;49.486;12.176;2023-02-01T09:05:34;7.97;;;2.80;;
29044;SDS011;16133;49.486;12.176;2023-02-01T09:07:59;9.90;;;3.42;;
29044;SDS011;16133;49.486;12.176;2023-02-01T09:10:24;10.68;;;3.42;;
29044;SDS011;16133;49.486;12.176;2023-02-01T09:12:51;13.55;;;2.72;;
29044;SDS011;16133;49.486;12.176;2023-02-01T09:15:17;8.18;;;2.50;;
29044;SDS011;16133;49.486;12.176;2023-02-01T09:17:42;7.72;;;2.40;;
29044;SDS011;16133;49.486;12.176;2023-02-01T09:20:08;12.25;;;2.75;;
29044;SDS011;16133;49.486;12.176;2023-02-01T09:22:36;6.93;;;2.55;;
29044;SDS011;16133;49.486;12.176;2023-02-01T09:25:01;9.57;;;2.30;;
29044;SDS011;16133;49.486;12.176;2023-02-01T09:27:27;10.77;;;2.15;;
29044;SDS011;16133;49.486;12.176;2023-02-01T09:29:52;11.30;;;2.63;;
29044;SDS011;16133;49.486;12.176;2023-02-01T09:32:19;10.55;;;2.80;;
29044;SDS011;16133;49.486;12.176;2023-02-01T09:34:45;11.57;;;3.55;;
29044;SDS011;16133;49.486;12.176;2023-02-01T09:37:11;12.50;;;2.75;;
29044;SDS011;16133;49.486;12.176;2023-02-01T09:39:36;6.95;;;2.42;;
29044;SDS011;16133;49.486;12.176;2023-02-01T09:47:58;6.82;;;1.88;;
29044;SDS011;16133;49.486;12.176;2023-02-01T09:50:32;7.65;;;2.10;;
29044;SDS011;16133;49.486;12.176;2023-02-01T09:55:50;7.30;;;2.17;;
29044;SDS011;16133;49.486;12.176;2023-02-01T09:58:24;5.13;;;1.95;;
29044;SDS011;16133;49.486;12.176;2023-02-01T10:00:59;4.80;;;1.90;;
29044;SDS011;16133;49.486;12.176;2023-02-01T10:03:32;9.25;;;2.47;;
29044;SDS011;16133;49.486;12.176;2023-02-01T10:06:13;11.90;;;1.85;;
29044;SDS011;16133;49.486;12.176;2023-02-01T10:17:08;5.43;;;1.70;;
29044;SDS011;16133;49.486;12.176;2023-02-01T10:25:03;4.80;;;1.50;;
29044;SDS011;16133;49.486;12.176;2023-02-01T10:27:38;5.47;;;1.55;;
29044;SDS011;16133;49.486;12.176;2023-02-01T10:30:19;4.57;;;1.42;;
29044;SDS011;16133;49.486;12.176;2023-02-01T10:32:52;5.05;;;1.20;;
29044;SDS011;16133;49.486;12.176;2023-02-01T10:35:28;5.15;;;1.83;;
29044;SDS011;16133;49.486;12.176;2023-02-01T10:38:00;6.75;;;1.75;;
29044;SDS011;16133;49.486;12.176;2023-02-01T10:40:27;3.83;;;1.48;;
29044;SDS011;16133;49.486;12.176;2023-02-01T10:42:53;6.07;;;1.55;;
29044;SDS011;16133;49.486;12.176;2023-02-01T10:45:25;10.07;;;1.55;;
29044;SDS011;16133;49.486;12.176;2023-02-01T10:47:52;4.75;;;1.48;;
29044;SDS011;16133;49.486;12.176;2023-02-01T10:50:41;8.30;;;1.55;;
29044;SDS011;16133;49.486;12.176;2023-02-01T10:53:18;6.95;;;1.55;;
29044;SDS011;16133;49.486;12.176;2023-02-01T10:55:49;4.00;;;1.20;;
29044;SDS011;16133;49.486;12.176;2023-02-01T10:58:20;3.10;;;1.13;;
29044;SDS011;16133;49.486;12.176;2023-02-01T11:03:41;4.15;;;1.88;;
29044;SDS011;16133;49.486;12.176;2023-02-01T11:08:54;5.78;;;1.17;;
29044;SDS011;16133;49.486;12.176;2023-02-01T11:11:22;7.28;;;1.58;;
29044;SDS011;16133;49.486;12.176;2023-02-01T11:14:32;4.47;;;1.50;;
29044;SDS011;16133;49.486;12.176;2023-02-01T11:16:39;6.55;;;1.80;;
29044;SDS011;16133;49.486;12.176;2023-02-01T11:19:06;7.82;;;1.50;;
29044;SDS011;16133;49.486;12.176;2023-02-01T11:21:32;9.25;;;2.15;;
29044;SDS011;16133;49.486;12.176;2023-02-01T11:24:03;7.47;;;2.28;;
29044;SDS011;16133;49.486;12.176;2023-02-01T11:26:29;10.93;;;2.35;;
29044;SDS011;16133;49.486;12.176;2023-02-01T11:28:57;3.60;;;1.58;;
29044;SDS011;16133;49.486;12.176;2023-02-01T11:31:26;9.25;;;1.42;;
29044;SDS011;16133;49.486;12.176;2023-02-01T11:34:15;5.30;;;1.55;;
29044;SDS011;16133;49.486;12.176;2023-02-01T11:36:45;11.63;;;1.85;;
29044;SDS011;16133;49.486;12.176;2023-02-01T11:41:44;5.47;;;1.50;;
29044;SDS011;16133;49.486;12.176;2023-02-01T11:44:35;9.20;;;2.00;;
29044;SDS011;16133;49.486;12.176;2023-02-01T11:47:48;7.38;;;1.45;;
29044;SDS011;16133;49.486;12.176;2023-02-01T11:50:05;4.57;;;1.55;;
29044;SDS011;16133;49.486;12.176;2023-02-01T12:07:44;37.85;;;8.50;;
29044;SDS011;16133;49.486;12.176;2023-02-01T12:23:23;10.13;;;3.58;;
29044;SDS011;16133;49.486;12.176;2023-02-01T12:47:24;10.73;;;2.58;;
29044;SDS011;16133;49.486;12.176;2023-02-01T12:52:45;11.98;;;2.40;;
29044;SDS011;16133;49.486;12.176;2023-02-01T12:58:26;8.25;;;4.05;;
29044;SDS011;16133;49.486;12.176;2023-02-01T13:00:55;8.68;;;3.50;;
29044;SDS011;16133;49.486;12.176;2023-02-01T13:06:13;9.98;;;2.25;;
29044;SDS011;16133;49.486;12.176;2023-02-01T13:11:12;6.97;;;2.90;;
29044;SDS011;16133;49.486;12.176;2023-02-01T13:16:28;8.90;;;2.00;;
29044;SDS011;16133;49.486;12.176;2023-02-01T13:19:03;7.10;;;2.00;;
29044;SDS011;16133;49.486;12.176;2023-02-01T13:21:36;5.93;;;2.10;;
29044;SDS011;16133;49.486;12.176;2023-02-01T13:24:10;8.18;;;2.70;;
29044;SDS011;16133;49.486;12.176;2023-02-01T13:27:05;8.80;;;2.20;;
29044;SDS011;16133;49.486;12.176;2023-02-01T13:29:31;8.00;;;1.92;;
29044;SDS011;16133;49.486;12.176;2023-02-01T13:40:40;6.55;;;1.67;;
29044;SDS011;16133;49.486;12.176;2023-02-01T13:43:12;6.78;;;2.22;;
29044;SDS011;16133;49.486;12.176;2023-02-01T13:45:50;9.70;;;2.38;;
29044;SDS011;16133;49.486;12.176;2023-02-01T13:48:25;7.93;;;1.80;;
29044;SDS011;16133;49.486;12.176;2023-02-01T13:50:58;8.25;;;2.20;;
29044;SDS011;16133;49.486;12.176;2023-02-01T13:58:37;4.85;;;1.35;;
29044;SDS011;16133;49.486;12.176;2023-02-01T14:11:37;4.55;;;1.67;;
29044;SDS011;16133;49.486;12.176;2023-02-01T14:16:39;6.38;;;1.98;;
29044;SDS011;16133;49.486;12.176;2023-02-01T14:19:07;8.23;;;1.95;;
29044;SDS011;16133;49.486;12.176;2023-02-01T14:24:27;14.20;;;3.97;;
29044;SDS011;16133;49.486;12.176;2023-02-01T14:26:56;11.15;;;4.18;;
29044;SDS011;16133;49.486;12.176;2023-02-01T14:37:00;16.48;;;7.90;;
29044;SDS011;16133;49.486;12.176;2023-02-01T14:42:04;10.52;;;3.95;;
29044;SDS011;16133;49.486;12.176;2023-02-01T14:44:40;10.55;;;5.05;;
29044;SDS011;16133;49.486;12.176;2023-02-01T14:47:10;16.02;;;6.40;;
29044;SDS011;16133;49.486;12.176;2023-02-01T14:52:23;10.20;;;3.80;;
29044;SDS011;16133;49.486;12.176;2023-02-01T14:54:56;13.13;;;6.00;;
29044;SDS011;16133;49.486;12.176;2023-02-01T14:57:28;6.38;;;3.92;;
29044;SDS011;16133;49.486;12.176;2023-02-01T15:00:00;12.05;;;4.60;;
29044;SDS011;16133;49.486;12.176;2023-02-01T15:02:41;16.38;;;7.20;;
29044;SDS011;16133;49.486;12.176;2023-02-01T15:05:28;9.30;;;4.03;;
29044;SDS011;16133;49.486;12.176;2023-02-01T15:08:02;6.45;;;2.70;;
29044;SDS011;16133;49.486;12.176;2023-02-01T15:10:43;15.90;;;6.28;;
29044;SDS011;16133;49.486;12.176;2023-02-01T15:13:17;11.35;;;3.00;;
29044;SDS011;16133;49.486;12.176;2023-02-01T15:15:45;8.13;;;2.97;;
29044;SDS011;16133;49.486;12.176;2023-02-01T15:18:24;15.75;;;6.65;;
29044;SDS011;16133;49.486;12.176;2023-02-01T15:20:55;21.45;;;10.32;;
29044;SDS011;16133;49.486;12.176;2023-02-01T15:23:22;25.73;;;16.92;;
29044;SDS011;16133;49.486;12.176;2023-02-01T15:25:48;24.67;;;8.57;;
29044;SDS011;16133;49.486;12.176;2023-02-01T15:28:14;15.48;;;7.35;;
29044;SDS011;16133;49.486;12.176;2023-02-01T15:30:50;17.95;;;7.63;;
29044;SDS011;16133;49.486;12.176;2023-02-01T15:33:27;16.40;;;4.72;;
29044;SDS011;16133;49.486;12.176;2023-02-01T15:38:32;16.50;;;3.92;;
29044;SDS011;16133;49.486;12.176;2023-02-01T15:41:14;50.25;;;12.80;;
29044;SDS011;16133;49.486;12.176;2023-02-01T15:43:42;40.65;;;10.63;;
29044;SDS011;16133;49.486;12.176;2023-02-01T15:46:09;83.38;;;18.08;;
29044;SDS011;16133;49.486;12.176;2023-02-01T15:48:39;75.70;;;18.98;;
29044;SDS011;16133;49.486;12.176;2023-02-01T15:51:11;46.38;;;12.13;;
29044;SDS011;16133;49.486;12.176;2023-02-01T15:53:46;66.25;;;20.75;;
29044;SDS011;16133;49.486;12.176;2023-02-01T15:56:15;34.17;;;8.95;;
29044;SDS011;16133;49.486;12.176;2023-02-01T15:58:50;34.15;;;10.15;;
29044;SDS011;16133;49.486;12.176;2023-02-01T16:01:19;20.52;;;7.85;;
29044;SDS011;16133;49.486;12.176;2023-02-01T16:03:45;14.00;;;5.85;;
29044;SDS011;16133;49.486;12.176;2023-02-01T16:08:51;13.00;;;4.40;;
29044;SDS011;16133;49.486;12.176;2023-02-01T16:14:04;22.42;;;7.05;;
29044;SDS011;16133;49.486;12.176;2023-02-01T16:16:30;22.90;;;9.25;;
29044;SDS011;16133;49.486;12.176;2023-02-01T16:18:55;21.05;;;6.57;;
29044;SDS011;16133;49.486;12.176;2023-02-01T16:21:20;19.35;;;7.85;;
29044;SDS011;16133;49.486;12.176;2023-02-01T16:23:49;30.70;;;10.68;;
29044;SDS011;16133;49.486;12.176;2023-02-01T16:26:16;15.48;;;4.38;;
29044;SDS011;16133;49.486;12.176;2023-02-01T16:28:41;28.10;;;11.60;;
29044;SDS011;16133;49.486;12.176;2023-02-01T16:31:10;19.42;;;6.78;;
29044;SDS011;16133;49.486;12.176;2023-02-01T16:33:43;19.27;;;5.75;;
29044;SDS011;16133;49.486;12.176;2023-02-01T16:36:10;11.23;;;5.03;;
29044;SDS011;16133;49.486;12.176;2023-02-01T16:38:35;29.65;;;7.72;;
29044;SDS011;16133;49.486;12.176;2023-02-01T16:41:01;18.73;;;6.45;;
29044;SDS011;16133;49.486;12.176;2023-02-01T16:43:27;14.93;;;6.05;;
29044;SDS011;16133;49.486;12.176;2023-02-01T16:45:53;15.45;;;5.75;;
29044;SDS011;16133;49.486;12.176;2023-02-01T16:50:46;15.15;;;4.63;;
29044;SDS011;16133;49.486;12.176;2023-02-01T16:53:14;19.33;;;7.38;;
29044;SDS011;16133;49.486;12.176;2023-02-01T16:55:42;21.20;;;7.50;;
29044;SDS011;16133;49.486;12.176;2023-02-01T16:58:08;18.85;;;6.50;;
29044;SDS011;16133;49.486;12.176;2023-02-01T17:00:34;10.05;;;3.13;;
29044;SDS011;16133;49.486;12.176;2023-02-01T17:03:02;10.82;;;4.20;;
29044;SDS011;16133;49.486;12.176;2023-02-01T17:05:27;15.05;;;4.68;;
29044;SDS011;16133;49.486;12.176;2023-02-01T17:07:53;12.80;;;3.22;;
29044;SDS011;16133;49.486;12.176;2023-02-01T17:10:22;23.15;;;9.85;;
29044;SDS011;16133;49.486;12.176;2023-02-01T17:12:50;14.63;;;5.03;;
29044;SDS011;16133;49.486;12.176;2023-02-01T17:15:16;8.27;;;3.03;;
29044;SDS011;16133;49.486;12.176;2023-02-01T17:17:41;21.65;;;4.47;;
29044;SDS011;16133;49.486;12.176;2023-02-01T17:20:26;7.57;;;2.60;;
29044;SDS011;16133;49.486;12.176;2023-02-01T17:22:56;8.13;;;3.03;;
29044;SDS011;16133;49.486;12.176;2023-02-01T17:25:22;11.18;;;4.20;;
29044;SDS011;16133;49.486;12.176;2023-02-01T17:27:49;11.90;;;3.00;;
29044;SDS011;16133;49.486;12.176;2023-02-01T17:30:15;8.88;;;2.60;;
29044;SDS011;16133;49.486;12.176;2023-02-01T17:32:41;14.68;;;2.97;;
29044;SDS011;16133;49.486;12.176;2023-02-01T17:35:15;6.75;;;2.80;;
29044;SDS011;16133;49.486;12.176;2023-02-01T17:37:44;13.45;;;3.50;;
29044;SDS011;16133;49.486;12.176;2023-02-01T17:40:09;15.00;;;3.58;;
29044;SDS011;16133;49.486;12.176;2023-02-01T17:42:35;10.40;;;3.05;;
29044;SDS011;16133;49.486;12.176;2023-02-01T17:45:12;10.07;;;4.47;;
29044;SDS011;16133;49.486;12.176;2023-02-01T17:47:57;17.95;;;3.97;;